CheckWX is a tool to help pilots better visualize weather data.  It is not intended as a substitute for an official pre-flight weather briefing.

08:53:36 UTC

KMYV METAR
Yuba County Airport
Marysville, California, USA
Current

1 hour ago

KMYV 220753Z AUTO 12005KT 10SM BKN060 11/09 A2982 RMK AO2 RAB18E32 SLP100 P0000 T01110089 402110106 $
Observed
May-22 @ 07:53 UTC
Wind
  • 120° at 5 KTS
Visibility
10 SM
Flight Rules
VFR
Cloud Levels
  • Broken at 6,000' AGL
Temperature
11°C / 52°F
Dewpoint
C / 48°F
Humidity
88%
Altimeter
29.82" Hg
Pressure
1009.82 hPa
Current Rain
0.01"
Previous

2 hours ago

KMYV 220653Z AUTO 18007KT 10SM BKN060 OVC090 11/09 A2981 RMK AO2 SLP098 T01110089 $
Observed
May-22 @ 06:53 UTC
Wind
  • 180° at 7 KTS
Visibility
10 SM
Flight Rules
VFR
Cloud Levels
  • Broken at 6,000' AGL
  • Overcast at 9,000' AGL
Temperature
11°C / 52°F
Dewpoint
C / 48°F
Humidity
88%
Altimeter
29.81" Hg
Pressure
1009.52 hPa
Previous

3 hours ago

KMYV 220553Z AUTO 15007KT 10SM SCT038 BKN080 11/08 A2981 RMK AO2 RAE0456 SLP099 P0000 60004 T01110083 10206 20106 51014 $
Observed
May-22 @ 05:53 UTC
Wind
  • 150° at 7 KTS
Visibility
10 SM
Flight Rules
VFR
Cloud Levels
  • Scattered at 3,800' AGL
  • Broken at 8,000' AGL
Temperature
11°C / 52°F
Dewpoint
C / 46°F
Humidity
82%
Altimeter
29.81" Hg
Pressure
1009.52 hPa
Current Rain
0.01"